createdAt,value
2023-03-26T00:00:11.993Z,90.94
2023-03-26T00:01:37.712Z,90.93
2023-03-26T00:02:41.069Z,90.96
2023-03-26T00:03:53.569Z,90.97
2023-03-26T00:04:56.478Z,90.92
2023-03-26T00:06:12.855Z,90.90
2023-03-26T00:07:16.102Z,91.01
2023-03-26T00:08:18.936Z,90.91
2023-03-26T00:09:21.915Z,91.14
2023-03-26T00:10:25.532Z,90.95
2023-03-26T00:11:29.620Z,91.06
2023-03-26T00:12:32.504Z,91.09
2023-03-26T00:13:35.799Z,91.10
2023-03-26T00:14:40.862Z,91.03
2023-03-26T00:15:43.610Z,90.95
2023-03-26T00:16:47.453Z,90.99
2023-03-26T00:17:51.702Z,91.00
2023-03-26T00:18:55.357Z,91.10
2023-03-26T00:19:59.677Z,91.25
2023-03-26T00:21:05.453Z,91.04
2023-03-26T00:22:11.227Z,91.22
2023-03-26T00:23:14.439Z,91.13
2023-03-26T00:24:17.438Z,91.22
2023-03-26T00:25:21.457Z,91.23
2023-03-26T00:26:24.599Z,91.27
2023-03-26T00:27:27.789Z,91.29
2023-03-26T00:28:30.854Z,91.16
2023-03-26T00:29:35.719Z,91.24
2023-03-26T00:30:41.810Z,91.33
2023-03-26T00:31:46.592Z,91.27
2023-03-26T00:32:53.652Z,91.26
2023-03-26T00:33:57.884Z,91.26
2023-03-26T00:35:01.931Z,91.22
2023-03-26T00:36:14.742Z,91.30
2023-03-26T00:37:18.393Z,91.38
2023-03-26T00:38:22.615Z,91.31
2023-03-26T00:39:25.461Z,90.99
2023-03-26T00:40:29.893Z,91.50
2023-03-26T00:41:37.177Z,91.46
2023-03-26T00:42:40.401Z,91.18
2023-03-26T00:43:46.732Z,91.27
2023-03-26T00:44:54.991Z,91.51
2023-03-26T00:45:58.044Z,91.42
2023-03-26T00:47:01.539Z,91.46
2023-03-26T00:48:04.976Z,91.35
2023-03-26T00:49:11.199Z,91.29
2023-03-26T00:50:16.301Z,91.33
2023-03-26T00:51:20.829Z,91.60
2023-03-26T00:52:23.944Z,91.42
2023-03-26T00:53:27.001Z,91.34
2023-03-26T00:54:29.914Z,91.38
2023-03-26T00:55:32.800Z,91.45
2023-03-26T00:56:35.900Z,91.41
2023-03-26T00:57:40.318Z,91.40
2023-03-26T00:58:43.797Z,91.51
2023-03-26T00:59:46.724Z,91.65
2023-03-26T01:00:52.448Z,91.65
2023-03-26T01:01:58.495Z,91.60
2023-03-26T01:03:04.352Z,91.62
2023-03-26T01:04:28.194Z,91.66
2023-03-26T01:05:35.060Z,91.65
2023-03-26T01:06:42.363Z,91.67
2023-03-26T01:07:46.217Z,91.69
2023-03-26T01:08:51.130Z,91.99
2023-03-26T01:09:55.299Z,91.99
2023-03-26T01:11:03.124Z,91.93
2023-03-26T01:12:08.724Z,91.81
2023-03-26T01:13:12.901Z,91.87
2023-03-26T01:14:23.608Z,91.92
2023-03-26T01:15:30.145Z,92.06
2023-03-26T01:16:46.615Z,91.99
2023-03-26T01:17:52.106Z,92.00
2023-03-26T01:18:58.796Z,91.94
2023-03-26T01:20:15.139Z,92.14
2023-03-26T01:21:30.515Z,91.94
2023-03-26T01:22:36.650Z,91.79
2023-03-26T01:23:49.111Z,91.76
2023-03-26T01:24:56.637Z,91.88
2023-03-26T01:26:17.595Z,91.85
2023-03-26T01:27:24.685Z,91.69
2023-03-26T01:28:32.353Z,91.81
2023-03-26T01:29:44.675Z,91.93
2023-03-26T01:33:14.116Z,91.69
2023-03-26T01:34:37.364Z,91.73
2023-03-26T01:35:52.899Z,91.75
2023-03-26T01:37:18.795Z,91.56
2023-03-26T01:38:32.832Z,91.67
2023-03-26T01:39:49.597Z,91.73
2023-03-26T01:41:08.308Z,91.79
2023-03-26T01:42:35.392Z,91.77
2023-03-26T01:43:55.399Z,91.79
2023-03-26T01:45:09.437Z,91.71
2023-03-26T01:46:15.466Z,91.69
2023-03-26T01:47:19.388Z,91.81
2023-03-26T01:48:30.681Z,91.76
2023-03-26T01:49:33.750Z,91.75
2023-03-26T01:50:36.764Z,91.76
2023-03-26T01:51:42.100Z,91.80
2023-03-26T01:52:45.122Z,92.06
2023-03-26T01:53:48.398Z,92.06
2023-03-26T01:54:52.487Z,91.97
2023-03-26T01:56:27.017Z,91.81
2023-03-26T01:57:32.457Z,91.78
2023-03-26T01:58:48.593Z,91.89
2023-03-26T02:00:40.115Z,91.91
2023-03-26T02:02:01.398Z,91.98
2023-03-26T02:03:27.966Z,92.09
2023-03-26T02:04:39.766Z,92.07
2023-03-26T02:05:57.979Z,92.18
2023-03-26T02:07:06.193Z,92.16
2023-03-26T02:08:35.777Z,92.07
2023-03-26T02:09:45.913Z,92.18
2023-03-26T02:10:55.484Z,92.43
2023-03-26T02:11:59.608Z,92.31
2023-03-26T02:13:03.277Z,92.32
2023-03-26T02:14:08.380Z,92.46
2023-03-26T02:15:12.321Z,92.43
2023-03-26T02:16:20.233Z,92.44
2023-03-26T02:17:24.509Z,92.54
2023-03-26T02:18:39.020Z,92.48
2023-03-26T02:19:42.379Z,92.67
2023-03-26T02:20:45.385Z,92.67
2023-03-26T02:21:52.535Z,92.63
2023-03-26T02:22:57.785Z,92.77
2023-03-26T02:24:04.518Z,92.83
2023-03-26T02:25:12.308Z,92.64
2023-03-26T02:26:18.208Z,92.73
2023-03-26T02:27:31.840Z,92.72
2023-03-26T02:28:34.889Z,92.80
2023-03-26T02:29:40.439Z,92.80
2023-03-26T02:30:46.010Z,92.88
2023-03-26T02:31:51.426Z,92.94
2023-03-26T02:32:54.659Z,93.09
2023-03-26T02:33:58.853Z,93.15
2023-03-26T02:35:05.473Z,93.07
2023-03-26T02:36:10.759Z,93.13
2023-03-26T02:37:14.095Z,93.03
2023-03-26T02:38:19.628Z,93.32
2023-03-26T02:39:23.464Z,93.27
2023-03-26T02:40:32.980Z,93.24
2023-03-26T02:41:37.431Z,93.40
2023-03-26T02:42:47.547Z,93.36
2023-03-26T02:43:50.590Z,93.36
2023-03-26T02:44:55.430Z,93.63
2023-03-26T02:46:17.298Z,93.49
2023-03-26T02:47:31.403Z,93.50
2023-03-26T02:48:54.723Z,93.65
2023-03-26T02:50:03.802Z,93.65
2023-03-26T02:51:27.577Z,93.59
2023-03-26T02:52:54.228Z,93.55
2023-03-26T02:53:57.112Z,93.80
2023-03-26T02:55:21.126Z,93.67
2023-03-26T02:56:25.527Z,93.75
2023-03-26T02:57:55.373Z,93.77
2023-03-26T02:59:04.879Z,93.76
2023-03-26T03:00:14.417Z,93.70
2023-03-26T03:01:38.378Z,93.70
2023-03-26T03:02:41.476Z,93.82
2023-03-26T03:04:13.712Z,93.71
2023-03-26T03:05:18.526Z,93.70
2023-03-26T03:06:22.622Z,94.02
2023-03-26T03:07:29.643Z,93.69
2023-03-26T03:08:34.094Z,93.88
2023-03-26T03:09:54.877Z,93.91
2023-03-26T03:11:22.232Z,93.78
2023-03-26T03:12:26.180Z,93.83
2023-03-26T03:13:29.995Z,93.84
2023-03-26T03:14:32.968Z,93.91
2023-03-26T03:15:36.106Z,93.84
2023-03-26T03:16:39.005Z,93.82
2023-03-26T03:17:44.534Z,93.89
2023-03-26T03:18:54.655Z,94.10
2023-03-26T03:19:58.278Z,93.93
2023-03-26T03:21:02.919Z,93.96
2023-03-26T03:22:06.394Z,93.82
2023-03-26T03:23:09.945Z,93.82
2023-03-26T03:24:13.984Z,93.92
2023-03-26T03:25:22.259Z,93.78
2023-03-26T03:26:30.049Z,93.84
2023-03-26T03:27:39.337Z,93.88
2023-03-26T03:28:48.261Z,94.00
2023-03-26T03:29:55.975Z,93.99
2023-03-26T03:31:31.206Z,93.94
2023-03-26T03:32:38.660Z,94.03
2023-03-26T03:33:43.108Z,94.21
2023-03-26T03:34:46.488Z,93.98
2023-03-26T03:35:50.631Z,94.04
2023-03-26T03:36:53.904Z,94.10
2023-03-26T03:38:19.849Z,94.14
2023-03-26T03:39:24.697Z,94.01
2023-03-26T03:40:27.750Z,94.18
2023-03-26T03:41:31.309Z,93.93
2023-03-26T03:42:34.996Z,93.98
2023-03-26T03:43:39.077Z,94.05
2023-03-26T03:44:47.601Z,93.99
2023-03-26T03:46:09.311Z,93.91
2023-03-26T03:47:23.961Z,93.94
2023-03-26T03:48:28.042Z,94.21
2023-03-26T03:49:31.045Z,94.10
2023-03-26T03:50:35.808Z,94.08
2023-03-26T03:51:53.209Z,93.86
2023-03-26T03:53:03.024Z,94.08
2023-03-26T03:54:05.964Z,94.05
2023-03-26T03:55:27.760Z,93.91
2023-03-26T03:56:30.879Z,93.95
2023-03-26T03:57:52.653Z,93.80
2023-03-26T03:58:59.609Z,93.90
2023-03-26T04:00:11.809Z,93.92
2023-03-26T04:01:23.605Z,94.09
2023-03-26T04:02:36.251Z,93.87
2023-03-26T04:03:40.861Z,94.00
2023-03-26T04:04:50.404Z,94.10
2023-03-26T04:05:57.128Z,94.07
2023-03-26T04:07:01.168Z,94.09
2023-03-26T04:08:12.274Z,93.95
2023-03-26T04:09:21.456Z,93.98
2023-03-26T04:10:24.501Z,93.97
2023-03-26T04:11:39.583Z,94.01
2023-03-26T04:12:53.941Z,93.90
2023-03-26T04:14:07.236Z,94.02
2023-03-26T04:15:32.031Z,93.89
2023-03-26T04:16:35.278Z,93.92
2023-03-26T04:17:42.674Z,93.92
2023-03-26T04:18:46.422Z,93.82
2023-03-26T04:19:53.163Z,93.84
2023-03-26T04:20:56.675Z,93.86
2023-03-26T04:22:03.104Z,94.18
2023-03-26T04:23:14.232Z,94.05
2023-03-26T04:24:17.147Z,93.91
2023-03-26T04:25:39.415Z,93.89
2023-03-26T04:26:51.681Z,93.90
2023-03-26T04:28:08.588Z,93.96
2023-03-26T04:29:42.924Z,94.10
2023-03-26T04:30:53.794Z,93.99
2023-03-26T04:32:30.472Z,93.98
2023-03-26T04:33:35.101Z,94.04
2023-03-26T04:34:38.812Z,94.17
2023-03-26T04:35:45.504Z,94.34
2023-03-26T04:36:49.228Z,94.11
2023-03-26T04:37:52.957Z,94.11
2023-03-26T04:39:05.114Z,93.87
2023-03-26T04:40:30.553Z,93.98
2023-03-26T04:41:43.425Z,93.86
2023-03-26T04:42:54.849Z,93.74
2023-03-26T04:44:22.522Z,93.82
2023-03-26T04:45:31.232Z,93.98
2023-03-26T04:46:35.193Z,93.81
2023-03-26T04:48:04.295Z,93.90
2023-03-26T04:49:07.358Z,94.09
2023-03-26T04:50:11.333Z,94.03
2023-03-26T04:51:18.293Z,93.93
2023-03-26T04:52:21.538Z,93.98
2023-03-26T04:53:34.541Z,94.24
2023-03-26T04:55:00.096Z,94.04
2023-03-26T04:56:19.611Z,94.07
2023-03-26T04:57:52.015Z,94.25
2023-03-26T04:59:20.161Z,94.74
2023-03-26T05:00:24.858Z,94.28
2023-03-26T05:01:30.817Z,94.02
2023-03-26T05:02:34.201Z,94.17
2023-03-26T05:03:40.681Z,94.37
2023-03-26T05:04:47.729Z,94.54
2023-03-26T05:05:51.653Z,94.18
2023-03-26T05:06:55.222Z,94.80
2023-03-26T05:08:02.712Z,94.79
2023-03-26T05:09:05.746Z,94.34
2023-03-26T05:10:28.635Z,94.60
2023-03-26T05:11:40.242Z,94.66
2023-03-26T05:12:43.466Z,94.49
2023-03-26T05:13:51.152Z,94.18
2023-03-26T05:14:54.743Z,94.37
2023-03-26T05:16:16.667Z,94.12
2023-03-26T05:17:41.658Z,94.08
2023-03-26T05:18:51.651Z,94.19
2023-03-26T05:19:54.795Z,94.15
2023-03-26T05:20:58.424Z,94.07
2023-03-26T05:22:02.536Z,94.36
2023-03-26T05:23:08.018Z,94.28
2023-03-26T05:24:17.019Z,94.54
2023-03-26T05:25:20.756Z,94.81
2023-03-26T05:26:24.127Z,94.60
2023-03-26T05:27:26.966Z,95.01
2023-03-26T05:28:30.856Z,94.94
2023-03-26T05:29:40.989Z,94.43
2023-03-26T05:30:44.590Z,94.40
2023-03-26T05:31:48.717Z,94.51
2023-03-26T05:32:52.287Z,94.95
2023-03-26T05:34:00.484Z,95.22
2023-03-26T05:35:04.464Z,94.88
2023-03-26T05:36:13.373Z,94.52
2023-03-26T05:37:19.995Z,94.41
2023-03-26T05:38:32.839Z,94.63
2023-03-26T05:39:36.183Z,94.61
2023-03-26T05:41:02.611Z,94.51
2023-03-26T05:42:07.958Z,94.43
2023-03-26T05:43:22.073Z,94.50
2023-03-26T05:44:43.361Z,94.41
2023-03-26T05:45:53.048Z,94.60
2023-03-26T05:47:02.663Z,94.38
2023-03-26T05:48:06.134Z,94.38
2023-03-26T05:49:09.035Z,94.61
2023-03-26T05:50:12.117Z,94.66
2023-03-26T05:51:16.960Z,94.32
2023-03-26T05:52:26.837Z,94.20
2023-03-26T05:53:48.351Z,94.26
2023-03-26T05:55:27.827Z,94.28
2023-03-26T05:56:49.407Z,94.52
2023-03-26T05:58:12.260Z,94.34
2023-03-26T05:59:27.128Z,94.02
2023-03-26T06:00:48.916Z,94.34
2023-03-26T06:01:54.615Z,94.02
2023-03-26T06:03:12.981Z,94.18
2023-03-26T06:04:34.675Z,94.14
2023-03-26T06:05:59.432Z,93.94
2023-03-26T06:07:14.066Z,93.78
2023-03-26T06:08:21.969Z,92.93
2023-03-26T06:09:27.077Z,92.38
2023-03-26T06:10:30.454Z,92.41
2023-03-26T06:11:33.802Z,92.05
2023-03-26T06:12:38.833Z,92.17
2023-03-26T06:13:42.644Z,92.35
2023-03-26T06:14:47.157Z,91.74
2023-03-26T06:15:58.474Z,91.86
2023-03-26T06:17:06.239Z,91.95
2023-03-26T06:18:29.098Z,91.86
2023-03-26T06:19:51.084Z,92.36
2023-03-26T06:21:01.275Z,92.46
2023-03-26T06:22:24.611Z,92.41
2023-03-26T06:23:53.996Z,92.34
2023-03-26T06:25:16.205Z,92.33
2023-03-26T06:26:43.461Z,92.55
2023-03-26T06:28:01.846Z,91.97
2023-03-26T06:29:37.118Z,92.43
2023-03-26T06:30:54.913Z,91.93
2023-03-26T06:32:19.152Z,91.91
2023-03-26T06:33:34.198Z,91.79
2023-03-26T06:34:37.218Z,92.08
2023-03-26T06:35:40.489Z,91.89
2023-03-26T06:36:43.424Z,92.05
2023-03-26T06:37:46.586Z,91.96
2023-03-26T06:38:49.468Z,91.29
2023-03-26T06:39:52.557Z,91.29
2023-03-26T06:41:04.820Z,91.08
2023-03-26T06:42:19.774Z,91.70
2023-03-26T06:43:45.576Z,91.76
2023-03-26T06:45:09.047Z,91.13
2023-03-26T06:47:02.031Z,91.32
2023-03-26T06:48:23.430Z,91.39
2023-03-26T06:49:49.676Z,91.06
2023-03-26T06:51:13.041Z,91.28
2023-03-26T06:52:34.619Z,91.32
2023-03-26T06:53:45.695Z,91.26
2023-03-26T06:55:10.264Z,91.50
2023-03-26T06:56:33.639Z,91.38
2023-03-26T06:57:58.324Z,91.29
2023-03-26T06:59:16.566Z,90.96
2023-03-26T07:00:48.977Z,90.05
2023-03-26T07:02:11.816Z,89.74
2023-03-26T07:03:33.675Z,90.02
2023-03-26T07:04:56.214Z,89.83
2023-03-26T07:06:18.069Z,90.10
2023-03-26T07:07:45.846Z,89.35
2023-03-26T07:09:12.747Z,90.08
2023-03-26T07:10:45.590Z,90.12
2023-03-26T07:11:59.856Z,90.07
2023-03-26T07:13:21.995Z,90.17
2023-03-26T07:14:47.908Z,89.71
2023-03-26T07:16:11.483Z,89.54
2023-03-26T07:17:32.912Z,89.68
2023-03-26T07:18:51.216Z,89.37
2023-03-26T07:19:58.237Z,89.64
2023-03-26T07:21:02.749Z,89.24
2023-03-26T07:22:07.726Z,89.41
2023-03-26T07:23:30.971Z,89.83
2023-03-26T07:24:44.264Z,89.77
2023-03-26T07:26:28.752Z,89.77
2023-03-26T07:28:06.557Z,89.75
2023-03-26T07:29:48.801Z,89.66
2023-03-26T07:31:12.301Z,89.52
2023-03-26T07:32:39.653Z,89.95
2023-03-26T07:34:26.627Z,89.50
2023-03-26T07:35:59.947Z,89.89
2023-03-26T07:37:30.182Z,89.11
2023-03-26T07:39:07.931Z,88.93
2023-03-26T07:40:40.460Z,89.39
2023-03-26T07:42:09.441Z,88.37
2023-03-26T07:44:00.163Z,87.96
2023-03-26T07:45:47.482Z,88.69
2023-03-26T07:47:18.306Z,88.75
2023-03-26T07:48:43.621Z,88.47
2023-03-26T07:49:53.743Z,88.70
2023-03-26T07:51:15.849Z,88.40
2023-03-26T07:52:58.205Z,87.93
2023-03-26T07:54:24.586Z,88.05
2023-03-26T07:56:07.822Z,88.02
2023-03-26T07:57:58.785Z,87.59
2023-03-26T07:59:45.628Z,87.87
2023-03-26T08:01:43.019Z,87.96
2023-03-26T08:03:03.660Z,87.65
2023-03-26T08:05:32.181Z,87.58
2023-03-26T08:07:03.729Z,87.21
2023-03-26T08:09:00.114Z,86.60
2023-03-26T08:10:29.724Z,86.02
2023-03-26T08:11:50.637Z,86.09
2023-03-26T08:13:06.702Z,86.44
2023-03-26T08:14:28.604Z,85.70
2023-03-26T08:15:38.072Z,85.88
2023-03-26T08:17:04.892Z,85.90
2023-03-26T08:18:30.476Z,85.65
2023-03-26T08:19:41.356Z,86.15
2023-03-26T08:20:54.425Z,85.62
2023-03-26T08:22:13.174Z,84.31
2023-03-26T08:23:50.400Z,84.36
2023-03-26T08:25:28.355Z,83.89
2023-03-26T08:26:45.506Z,84.27
2023-03-26T08:28:30.178Z,85.02
2023-03-26T08:29:51.880Z,84.30
2023-03-26T08:30:55.305Z,83.87
2023-03-26T08:32:01.813Z,84.03
2023-03-26T08:33:16.767Z,84.34
2023-03-26T08:34:20.033Z,84.50
2023-03-26T08:35:24.702Z,84.15
2023-03-26T08:36:27.879Z,83.81
2023-03-26T08:37:31.174Z,84.09
2023-03-26T08:38:34.347Z,83.26
2023-03-26T08:39:39.561Z,83.40
2023-03-26T08:41:17.086Z,83.30
2023-03-26T08:42:20.370Z,83.31
2023-03-26T08:44:17.456Z,83.60
2023-03-26T08:45:44.854Z,82.99
2023-03-26T08:47:12.673Z,83.12
2023-03-26T08:48:43.984Z,82.98
2023-03-26T08:50:09.265Z,82.43
2023-03-26T08:51:22.070Z,82.07
2023-03-26T08:52:50.922Z,81.81
2023-03-26T08:53:56.499Z,81.71
2023-03-26T08:55:08.694Z,81.58
2023-03-26T08:56:30.318Z,81.44
2023-03-26T08:57:57.095Z,80.83
2023-03-26T08:59:42.959Z,80.93
2023-03-26T09:01:01.485Z,80.22
2023-03-26T09:02:46.873Z,79.53
2023-03-26T09:04:29.779Z,79.87
2023-03-26T09:05:54.822Z,80.40
2023-03-26T09:07:07.769Z,78.69
2023-03-26T09:08:25.904Z,79.63
2023-03-26T09:09:47.573Z,79.88
2023-03-26T09:11:09.554Z,79.24
2023-03-26T09:12:15.797Z,79.82
2023-03-26T09:13:18.624Z,80.13
2023-03-26T09:14:51.037Z,80.33
2023-03-26T09:16:45.338Z,80.20
2023-03-26T09:18:22.297Z,80.40
2023-03-26T09:19:54.109Z,80.04
2023-03-26T09:21:46.129Z,80.34
2023-03-26T09:23:26.929Z,80.54
2023-03-26T09:24:54.651Z,80.09
2023-03-26T09:26:17.290Z,79.69
2023-03-26T09:27:36.674Z,80.24
2023-03-26T09:29:21.519Z,79.63
2023-03-26T09:30:47.275Z,79.75
2023-03-26T09:32:11.721Z,78.91
2023-03-26T09:33:20.871Z,79.44
2023-03-26T09:34:45.716Z,79.35
2023-03-26T09:36:09.536Z,78.83
2023-03-26T09:37:57.586Z,78.70
2023-03-26T09:39:16.529Z,77.37
2023-03-26T09:40:24.650Z,77.87
2023-03-26T09:41:43.142Z,78.41
2023-03-26T09:42:53.986Z,78.11
2023-03-26T09:44:24.729Z,78.24
2023-03-26T09:45:46.322Z,78.58
2023-03-26T09:47:01.189Z,78.33
2023-03-26T09:48:20.110Z,78.85
2023-03-26T09:50:00.618Z,78.76
2023-03-26T09:51:22.393Z,78.12
2023-03-26T09:53:03.009Z,77.82
2023-03-26T09:54:13.967Z,78.36
2023-03-26T09:55:45.253Z,77.99
2023-03-26T09:57:04.965Z,78.48
2023-03-26T09:58:19.951Z,78.68
2023-03-26T09:59:58.097Z,78.81
2023-03-26T10:01:25.862Z,78.61
2023-03-26T10:02:48.142Z,77.90
2023-03-26T10:04:15.732Z,78.63
2023-03-26T10:05:42.616Z,78.49
2023-03-26T10:07:12.441Z,78.06
2023-03-26T10:08:47.626Z,78.53
2023-03-26T10:10:15.477Z,79.22
2023-03-26T10:11:37.851Z,79.45
2023-03-26T10:12:51.094Z,79.60
2023-03-26T10:13:59.582Z,79.64
2023-03-26T10:15:23.995Z,79.68
2023-03-26T10:16:59.676Z,79.55
2023-03-26T10:18:37.269Z,79.52
2023-03-26T10:20:04.563Z,78.58
2023-03-26T10:21:32.337Z,79.35
2023-03-26T10:22:59.250Z,79.19
2023-03-26T10:25:01.452Z,79.31
2023-03-26T10:26:22.463Z,79.51
2023-03-26T10:27:44.333Z,79.78
2023-03-26T10:29:16.226Z,80.51
2023-03-26T10:30:35.367Z,80.60
2023-03-26T10:32:01.497Z,79.71
2023-03-26T10:33:19.574Z,80.38
2023-03-26T10:34:54.538Z,80.53
2023-03-26T10:36:29.433Z,80.65
2023-03-26T10:38:04.387Z,81.09
2023-03-26T10:39:38.934Z,81.52
2023-03-26T10:40:55.417Z,81.35
2023-03-26T10:42:26.638Z,81.47
2023-03-26T10:44:15.816Z,80.60
2023-03-26T10:45:53.182Z,80.71
2023-03-26T10:47:35.439Z,80.77
2023-03-26T10:48:47.721Z,80.31
2023-03-26T10:50:22.680Z,80.34
2023-03-26T10:51:51.531Z,78.65
2023-03-26T10:53:20.704Z,79.79
2023-03-26T10:54:36.261Z,80.38
2023-03-26T10:55:46.945Z,80.48
2023-03-26T10:56:52.410Z,80.77
2023-03-26T10:58:13.379Z,80.84
2023-03-26T10:59:19.138Z,79.31
2023-03-26T11:00:29.260Z,79.28
2023-03-26T11:01:42.173Z,78.61
2023-03-26T11:03:00.844Z,78.36
2023-03-26T11:04:42.704Z,78.78
2023-03-26T11:05:48.648Z,77.45
2023-03-26T11:07:09.047Z,76.35
2023-03-26T11:08:21.345Z,76.16
2023-03-26T11:09:51.563Z,76.55
2023-03-26T11:10:55.898Z,75.19
2023-03-26T11:12:27.034Z,74.98
2023-03-26T11:13:54.010Z,74.69
2023-03-26T11:15:17.944Z,75.69
2023-03-26T11:16:36.397Z,75.47
2023-03-26T11:17:51.659Z,75.66
2023-03-26T11:19:05.163Z,75.17
2023-03-26T11:20:11.499Z,74.87
2023-03-26T11:21:29.354Z,74.12
2023-03-26T11:23:04.911Z,74.72
2023-03-26T11:24:42.191Z,75.13
2023-03-26T11:26:02.176Z,75.44
2023-03-26T11:27:15.702Z,75.92
2023-03-26T11:28:28.577Z,75.66
2023-03-26T11:29:49.372Z,76.09
2023-03-26T11:31:08.716Z,76.65
2023-03-26T11:32:15.581Z,76.67
2023-03-26T11:33:45.707Z,76.02
2023-03-26T11:35:08.212Z,76.33
2023-03-26T11:36:16.682Z,76.46
2023-03-26T11:37:46.481Z,76.67
2023-03-26T11:38:57.904Z,76.76
2023-03-26T11:40:14.789Z,77.04
2023-03-26T11:41:24.138Z,76.58
2023-03-26T11:42:30.498Z,76.16
2023-03-26T11:43:36.846Z,76.68
2023-03-26T11:45:05.250Z,77.04
2023-03-26T11:46:14.234Z,75.85
2023-03-26T11:47:23.486Z,75.89
2023-03-26T11:48:33.106Z,75.85
2023-03-26T11:49:37.321Z,76.87
2023-03-26T11:50:46.509Z,76.18
2023-03-26T11:51:49.713Z,76.12
2023-03-26T11:52:57.373Z,75.35
2023-03-26T11:54:04.942Z,71.52
2023-03-26T11:55:12.665Z,70.47
2023-03-26T11:56:32.691Z,72.65
2023-03-26T11:57:38.386Z,72.35
2023-03-26T11:59:13.425Z,71.98
2023-03-26T12:00:21.112Z,73.07
2023-03-26T12:01:58.550Z,72.69
2023-03-26T12:03:01.625Z,69.90
2023-03-26T12:04:14.585Z,69.92
2023-03-26T12:05:26.431Z,69.07
2023-03-26T12:06:29.674Z,68.34
2023-03-26T12:07:34.409Z,67.92
2023-03-26T12:08:42.252Z,68.66
2023-03-26T12:09:51.167Z,68.79
2023-03-26T12:11:04.472Z,68.75
2023-03-26T12:12:07.446Z,69.29
2023-03-26T12:13:36.966Z,69.15
2023-03-26T12:14:42.900Z,69.87
2023-03-26T12:15:45.864Z,70.23
2023-03-26T12:17:01.281Z,69.96
2023-03-26T12:18:28.463Z,70.83
2023-03-26T12:19:39.542Z,69.32
2023-03-26T12:20:42.731Z,69.27
2023-03-26T12:21:51.321Z,68.70
2023-03-26T12:22:59.514Z,68.66
2023-03-26T12:24:06.227Z,69.42
2023-03-26T12:25:17.698Z,68.33
2023-03-26T12:26:35.084Z,67.86
2023-03-26T12:27:38.014Z,68.53
2023-03-26T12:28:46.052Z,69.06
2023-03-26T12:29:55.086Z,69.10
2023-03-26T12:31:02.887Z,66.49
2023-03-26T12:32:15.412Z,66.25
2023-03-26T12:33:30.246Z,66.38
2023-03-26T12:34:36.794Z,67.01
2023-03-26T12:35:40.881Z,67.84
2023-03-26T12:36:53.523Z,67.13
2023-03-26T12:38:13.388Z,68.12
2023-03-26T12:40:09.299Z,68.25
2023-03-26T12:41:08.001Z,68.65
2023-03-26T12:44:51.385Z,67.63
2023-03-26T12:44:52.618Z,64.72
2023-03-26T12:45:44.473Z,63.79
2023-03-26T12:48:00.391Z,62.03
2023-03-26T12:48:18.608Z,63.36
2023-03-26T12:49:22.730Z,64.25
2023-03-26T12:50:36.410Z,63.02
2023-03-26T12:51:49.623Z,62.96
2023-03-26T12:53:19.237Z,62.86
2023-03-26T12:55:00.358Z,62.81
2023-03-26T12:56:06.045Z,64.30
2023-03-26T12:57:25.268Z,64.27
2023-03-26T12:58:54.962Z,65.20
2023-03-26T13:00:25.446Z,65.12
2023-03-26T13:01:40.778Z,64.58
2023-03-26T13:02:53.091Z,64.75
2023-03-26T13:04:18.401Z,65.28
2023-03-26T13:06:03.336Z,65.16
2023-03-26T13:07:47.231Z,65.99
2023-03-26T13:08:52.748Z,65.99
2023-03-26T13:10:22.862Z,66.30
2023-03-26T13:11:55.562Z,66.33
2023-03-26T13:13:23.457Z,65.82
2023-03-26T13:15:00.921Z,64.95
2023-03-26T13:16:09.376Z,63.63
2023-03-26T13:17:30.037Z,63.78
2023-03-26T13:18:51.951Z,63.38
2023-03-26T13:20:29.868Z,63.49
2023-03-26T13:21:55.187Z,64.08
2023-03-26T13:23:20.967Z,64.01
2023-03-26T13:24:32.992Z,64.64
2023-03-26T13:26:00.557Z,64.95
2023-03-26T13:27:28.377Z,63.90
2023-03-26T13:28:33.262Z,63.15
2023-03-26T13:30:13.341Z,61.61
2023-03-26T13:31:27.887Z,60.97
2023-03-26T13:32:34.009Z,60.71
2023-03-26T13:34:16.219Z,60.53
2023-03-26T13:35:45.883Z,59.52
2023-03-26T13:36:51.879Z,60.59
2023-03-26T13:38:11.699Z,59.36
2023-03-26T13:39:21.220Z,59.28
2023-03-26T13:40:33.665Z,58.68
2023-03-26T13:41:59.631Z,58.01
2023-03-26T13:43:36.869Z,57.75
2023-03-26T13:45:05.506Z,57.08
2023-03-26T13:46:18.391Z,58.23
2023-03-26T13:47:29.132Z,58.00
2023-03-26T13:48:43.382Z,57.62
2023-03-26T13:50:01.966Z,58.46
2023-03-26T13:51:42.244Z,57.90
2023-03-26T13:52:52.258Z,57.48
2023-03-26T13:53:55.221Z,58.21
2023-03-26T13:55:04.428Z,58.26
2023-03-26T13:56:13.668Z,58.02
2023-03-26T13:57:41.635Z,58.84
2023-03-26T13:58:50.627Z,58.89
2023-03-26T13:59:59.172Z,59.15
2023-03-26T14:01:17.056Z,59.19
2023-03-26T14:02:47.891Z,59.96
2023-03-26T14:04:01.038Z,58.72
2023-03-26T14:05:21.252Z,59.27
2023-03-26T14:06:47.411Z,60.26
2023-03-26T14:08:22.853Z,60.11
2023-03-26T14:09:42.616Z,57.70
2023-03-26T14:10:56.804Z,57.59
2023-03-26T14:12:24.827Z,57.72
2023-03-26T14:13:43.637Z,57.32
2023-03-26T14:14:53.139Z,57.06
2023-03-26T14:16:11.811Z,56.63
2023-03-26T14:17:20.759Z,56.40
2023-03-26T14:18:38.263Z,54.76
2023-03-26T14:20:10.312Z,52.78
2023-03-26T14:21:42.778Z,53.15
2023-03-26T14:23:22.021Z,52.43
2023-03-26T14:24:44.194Z,49.90
2023-03-26T14:25:56.194Z,51.99
2023-03-26T14:27:37.411Z,51.69
2023-03-26T14:29:56.365Z,52.02
2023-03-26T14:31:19.556Z,49.94
2023-03-26T14:32:49.366Z,49.67
2023-03-26T14:34:34.524Z,47.46
2023-03-26T14:36:14.460Z,47.62
2023-03-26T14:37:33.163Z,48.58
2023-03-26T14:39:13.619Z,47.71
2023-03-26T14:40:39.703Z,48.75
2023-03-26T14:41:53.318Z,48.68
2023-03-26T14:43:23.306Z,47.82
2023-03-26T14:45:07.398Z,47.72
2023-03-26T14:46:21.563Z,49.24
2023-03-26T14:47:25.139Z,49.63
2023-03-26T14:48:37.173Z,50.36
2023-03-26T14:50:22.623Z,49.92
2023-03-26T14:51:47.751Z,49.79
2023-03-26T14:52:52.941Z,50.62
2023-03-26T14:54:19.192Z,50.39
2023-03-26T14:55:48.629Z,50.76
2023-03-26T14:57:00.984Z,50.79
2023-03-26T14:58:47.816Z,50.94
2023-03-26T14:59:51.109Z,51.46
2023-03-26T15:01:19.220Z,51.53
2023-03-26T15:02:22.294Z,51.64
2023-03-26T15:03:51.174Z,51.63
2023-03-26T15:04:53.970Z,51.93
2023-03-26T15:06:18.193Z,50.93
2023-03-26T15:07:45.849Z,51.73
2023-03-26T15:09:17.934Z,52.23
2023-03-26T15:10:25.917Z,52.56
2023-03-26T15:11:53.566Z,52.42
2023-03-26T15:13:34.048Z,52.66
2023-03-26T15:14:56.445Z,52.10
2023-03-26T15:16:13.437Z,51.86
2023-03-26T15:17:41.660Z,51.60
2023-03-26T15:18:57.292Z,52.30
2023-03-26T15:20:37.680Z,52.48
2023-03-26T15:21:57.201Z,53.18
2023-03-26T15:23:33.713Z,52.68
2023-03-26T15:24:55.901Z,53.13
2023-03-26T15:26:20.604Z,53.53
2023-03-26T15:27:37.930Z,53.71
2023-03-26T15:29:09.772Z,53.87
2023-03-26T15:30:42.668Z,53.67
2023-03-26T15:31:51.410Z,53.99
2023-03-26T15:33:05.472Z,53.76
2023-03-26T15:34:33.787Z,53.88
2023-03-26T15:36:11.345Z,54.00
2023-03-26T15:37:34.212Z,54.53
2023-03-26T15:39:11.888Z,54.51
2023-03-26T15:40:17.650Z,55.08
2023-03-26T15:41:34.732Z,55.55
2023-03-26T15:42:46.967Z,56.00
2023-03-26T15:44:23.618Z,56.00
2023-03-26T15:45:30.078Z,56.25
2023-03-26T15:46:38.790Z,56.59
2023-03-26T15:47:57.371Z,56.82
2023-03-26T15:49:16.572Z,56.80
2023-03-26T15:51:04.694Z,56.92
2023-03-26T15:52:21.242Z,57.26
2023-03-26T15:53:29.352Z,57.16
2023-03-26T15:55:00.014Z,57.24
2023-03-26T15:56:08.957Z,57.36
2023-03-26T15:57:36.908Z,57.58
2023-03-26T15:58:50.111Z,57.76
2023-03-26T16:00:15.536Z,57.99
2023-03-26T16:01:51.645Z,57.99
2023-03-26T16:03:10.157Z,58.42
2023-03-26T16:04:16.088Z,58.70
2023-03-26T16:05:21.878Z,58.99
2023-03-26T16:06:56.264Z,59.08
2023-03-26T16:08:14.931Z,58.98
2023-03-26T16:09:33.094Z,59.21
2023-03-26T16:10:51.534Z,59.16
2023-03-26T16:11:59.714Z,59.87
2023-03-26T16:13:36.757Z,59.72
2023-03-26T16:14:46.860Z,60.11
2023-03-26T16:15:56.348Z,59.94
2023-03-26T16:17:00.077Z,60.00
2023-03-26T16:18:06.252Z,60.11
2023-03-26T16:19:24.193Z,60.41
2023-03-26T16:20:34.457Z,60.36
2023-03-26T16:21:53.885Z,60.08
2023-03-26T16:23:01.646Z,60.30
2023-03-26T16:24:08.158Z,60.19
2023-03-26T16:25:27.775Z,60.16
2023-03-26T16:26:31.732Z,60.00
2023-03-26T16:27:35.445Z,59.97
2023-03-26T16:28:44.553Z,59.91
2023-03-26T16:30:09.705Z,59.75